Time;durP1;ratioP1;P1;durP2;ratioP2;P2;SDS_P1;SDS_P2;PMS_P1;PMS_P2;Temp;Humidity;BMP_temperature;BMP_pressure;BME280_temperature;BME280_humidity;BME280_pressure;Samples;Min_cycle;Max_cycle;Signal;HPM_P1;HPM_P2
2022/11/29 00:01:06;;;;;;;7.82;4.18;;;;;;;4.09;84.00;101255.06;4993560;28;20041;-87
2022/11/29 00:03:33;;;;;;;7.78;4.22;;;;;;;4.00;84.08;101233.47;4983081;28;20037;-89
2022/11/29 00:06:20;;;;;;;7.15;3.90;;;;;;;4.09;83.42;101239.94;5018089;28;20115;-91
2022/11/29 00:08:45;;;;;;;6.18;3.65;;;;;;;4.07;83.64;101243.66;4996943;28;20125;-88
2022/11/29 00:12:10;;;;;;;6.78;3.63;;;;;;;3.98;83.68;101205.22;5008540;28;20038;-85
2022/11/29 00:14:01;;;;;;;7.32;3.92;;;;;;;4.01;83.99;101219.19;5005308;28;20068;-86
2022/11/29 00:16:28;;;;;;;6.75;4.20;;;;;;;4.05;83.78;101224.28;4994474;28;20040;-86
2022/11/29 00:18:54;;;;;;;9.35;4.22;;;;;;;4.08;84.34;101230.25;5020071;28;20124;-86
2022/11/29 00:21:21;;;;;;;7.03;3.67;;;;;;;4.18;84.03;101243.78;4998146;28;20042;-87
2022/11/29 00:23:48;;;;;;;8.07;3.70;;;;;;;4.18;84.07;101247.28;5025907;28;20094;-87
2022/11/29 00:26:15;;;;;;;7.13;3.72;;;;;;;4.34;83.79;101251.56;4986397;28;20033;-86
2022/11/29 00:28:41;;;;;;;5.90;3.45;;;;;;;4.23;84.15;101239.84;4986585;28;20488;-87
2022/11/29 00:31:40;;;;;;;6.82;3.20;;;;;;;4.33;84.13;101249.84;4993694;28;20052;-87
2022/11/29 00:34:12;;;;;;;4.82;2.60;;;;;;;4.32;84.39;101243.69;4941954;28;20071;-88
2022/11/29 00:36:51;;;;;;;6.38;2.88;;;;;;;4.33;84.38;101234.75;4918796;29;20050;-86
2022/11/29 00:40:07;;;;;;;5.72;3.17;;;;;;;4.43;84.64;101246.47;4931123;29;20135;-88
2022/11/29 00:42:32;;;;;;;5.50;3.00;;;;;;;4.49;84.70;101245.16;4949758;29;20062;-88
2022/11/29 00:44:58;;;;;;;4.83;2.53;;;;;;;4.40;84.55;101237.81;5006291;28;20037;-87
2022/11/29 00:50:45;;;;;;;4.45;2.50;;;;;;;4.64;83.88;101249.44;5021684;28;20048;-87
2022/11/29 00:53:12;;;;;;;4.65;2.60;;;;;;;4.56;84.48;101233.13;5005693;28;20022;-86
2022/11/29 00:55:53;;;;;;;3.88;2.25;;;;;;;4.66;84.60;101246.66;4996694;28;20092;-88
2022/11/29 00:58:19;;;;;;;5.47;3.22;;;;;;;4.71;84.26;101236.53;4970862;28;20022;-87
2022/11/29 01:00:46;;;;;;;4.78;2.67;;;;;;;4.63;84.59;101237.06;5038502;28;20048;-86
2022/11/29 01:03:16;;;;;;;4.25;2.63;;;;;;;4.67;84.93;101248.34;5019687;28;20029;-87
2022/11/29 01:05:48;;;;;;;4.65;2.60;;;;;;;4.62;85.09;101234.53;5004202;28;20029;-88
2022/11/29 01:11:26;;;;;;;4.97;2.83;;;;;;;4.51;84.87;101205.13;5017189;28;20042;-87
2022/11/29 01:13:58;;;;;;;4.32;2.65;;;;;;;4.72;84.66;101230.22;5017374;28;20080;-88
2022/11/29 01:16:25;;;;;;;5.82;2.88;;;;;;;4.50;85.01;101185.63;5005598;28;20486;-87
2022/11/29 01:18:50;;;;;;;4.30;2.70;;;;;;;4.58;84.76;101201.91;4968056;28;20038;-87
2022/11/29 01:21:19;;;;;;;5.00;3.00;;;;;;;4.56;85.30;101210.97;4988482;28;20406;-88
2022/11/29 01:23:45;;;;;;;4.68;2.97;;;;;;;4.74;85.16;101222.97;5000104;28;20029;-87
2022/11/29 01:26:18;;;;;;;5.32;2.83;;;;;;;4.73;84.80;101210.63;4973565;28;20143;-87
2022/11/29 01:28:48;;;;;;;5.55;2.80;;;;;;;4.70;84.50;101208.19;4984846;28;20482;-86
2022/11/29 01:31:18;;;;;;;5.25;3.00;;;;;;;4.67;84.59;101189.75;5000171;28;20046;-86
2022/11/29 01:33:44;;;;;;;4.72;2.88;;;;;;;4.74;84.27;101222.97;4996693;28;20053;-88
2022/11/29 01:36:11;;;;;;;5.00;2.65;;;;;;;4.71;84.32;101219.72;5008625;28;20029;-88
2022/11/29 01:38:36;;;;;;;5.28;3.03;;;;;;;4.59;84.34;101203.63;5000953;28;20041;-88
2022/11/29 01:41:07;;;;;;;5.55;3.05;;;;;;;4.71;84.80;101215.22;4995320;28;20482;-87
2022/11/29 01:43:50;;;;;;;5.57;3.20;;;;;;;4.81;84.21;101234.91;5017323;28;20034;-87
2022/11/29 01:46:19;;;;;;;5.53;3.00;;;;;;;4.75;83.68;101210.50;4993842;28;20042;-87
2022/11/29 01:48:45;;;;;;;6.72;2.80;;;;;;;4.74;83.92;101206.16;5029996;28;20033;-87
2022/11/29 01:51:16;;;;;;;4.65;2.83;;;;;;;4.74;83.94;101199.00;4988037;28;20104;-86
2022/11/29 01:53:46;;;;;;;4.50;2.40;;;;;;;4.73;83.76;101184.00;4998569;28;20088;-88
2022/11/29 01:56:13;;;;;;;5.25;2.80;;;;;;;4.85;83.70;101209.75;5005029;28;20053;-86
2022/11/29 01:58:40;;;;;;;5.88;3.05;;;;;;;4.81;83.63;101189.63;4991491;28;20523;-86
2022/11/29 02:01:13;;;;;;;5.65;3.25;;;;;;;4.84;83.58;101177.88;5016904;28;20091;-88
2022/11/29 02:03:43;;;;;;;6.43;3.78;;;;;;;4.71;83.46;101161.09;4983488;28;20575;-87
2022/11/29 02:06:08;;;;;;;6.75;3.38;;;;;;;4.80;83.34;101169.28;4980950;28;20060;-91
2022/11/29 02:08:40;;;;;;;6.05;3.17;;;;;;;4.77;83.65;101174.81;5024982;28;20556;-87
2022/11/29 02:11:09;;;;;;;6.38;3.70;;;;;;;4.83;83.55;101195.69;5005365;28;20414;-88
2022/11/29 02:14:16;;;;;;;6.35;3.53;;;;;;;4.72;83.67;101182.28;5023542;28;20103;-88
2022/11/29 02:17:00;;;;;;;6.47;3.50;;;;;;;4.76;83.45;101178.44;5015839;28;20068;-87
2022/11/29 02:20:10;;;;;;;6.07;3.63;;;;;;;4.76;83.97;101194.44;5024134;28;20140;-88
2022/11/29 02:22:44;;;;;;;6.68;3.67;;;;;;;4.73;83.78;101193.78;5016146;28;20101;-87
2022/11/29 02:25:30;;;;;;;5.78;3.47;;;;;;;4.74;83.73;101191.03;4999322;28;20058;-87
2022/11/29 02:28:21;;;;;;;5.80;3.45;;;;;;;4.79;83.42;101191.53;5001550;28;20029;-87
2022/11/29 02:31:23;;;;;;;5.30;2.95;;;;;;;4.83;83.35;101186.84;5000875;28;20052;-86
2022/11/29 02:33:59;;;;;;;5.75;3.03;;;;;;;4.72;83.26;101195.59;5018053;28;20038;-87
2022/11/29 02:36:34;;;;;;;4.95;2.67;;;;;;;4.89;82.73;101209.53;5004180;28;20030;-87
2022/11/29 02:39:24;;;;;;;5.75;3.22;;;;;;;4.89;82.91;101193.53;5022830;28;20033;-87
2022/11/29 02:42:08;;;;;;;3.92;2.45;;;;;;;4.83;82.81;101200.16;4994897;28;20053;-88
2022/11/29 02:44:52;;;;;;;4.70;3.00;;;;;;;4.81;83.03;101197.59;5014970;28;20030;-88
2022/11/29 02:47:43;;;;;;;5.75;3.00;;;;;;;4.62;82.94;101182.09;5005217;28;20427;-87
2022/11/29 02:50:39;;;;;;;5.28;2.65;;;;;;;4.71;82.91;101196.56;4992972;28;20042;-86
2022/11/29 02:53:33;;;;;;;4.00;2.58;;;;;;;4.88;82.95;101202.50;5000468;28;20022;-87
2022/11/29 02:56:23;;;;;;;4.45;2.63;;;;;;;4.79;82.80;101198.69;5008583;28;20105;-88
2022/11/29 02:59:03;;;;;;;5.18;2.75;;;;;;;4.81;82.65;101197.59;5016806;28;20140;-85
2022/11/29 03:01:35;;;;;;;4.28;2.40;;;;;;;4.72;82.78;101203.59;4995533;28;20501;-87
2022/11/29 03:04:29;;;;;;;4.47;2.47;;;;;;;4.77;82.66;101212.09;5014100;28;20049;-87
2022/11/29 03:07:39;;;;;;;5.18;2.85;;;;;;;4.80;82.74;101206.56;4998772;28;20069;-87
2022/11/29 03:10:43;;;;;;;4.22;2.65;;;;;;;4.80;82.65;101193.25;5024866;28;20061;-87
2022/11/29 03:13:43;;;;;;;4.25;2.42;;;;;;;4.86;82.08;101211.44;5011798;28;20091;-87
2022/11/29 03:16:09;;;;;;;4.60;2.67;;;;;;;4.76;82.04;101181.09;4932034;28;20055;-88
2022/11/29 03:19:00;;;;;;;4.60;2.90;;;;;;;4.92;82.14;101198.66;5025165;28;20053;-86
2022/11/29 03:21:50;;;;;;;6.88;3.30;;;;;;;4.84;82.19;101213.38;5013218;28;20021;-86
2022/11/29 03:24:55;;;;;;;6.07;2.97;;;;;;;4.88;82.02;101202.50;5027309;28;20033;-89
2022/11/29 03:27:45;;;;;;;5.00;3.08;;;;;;;4.83;82.09;101186.84;5014333;28;20041;-88
2022/11/29 03:30:33;;;;;;;4.63;2.83;;;;;;;4.87;82.92;101204.31;5013181;28;20510;-87
2022/11/29 03:33:27;;;;;;;5.35;3.00;;;;;;;4.91;82.08;101187.13;5003499;28;20033;-88
2022/11/29 03:36:03;;;;;;;5.28;3.03;;;;;;;4.97;82.32;101196.50;5004032;28;20037;-88
2022/11/29 03:38:42;;;;;;;5.45;3.10;;;;;;;4.90;82.28;101184.59;5017129;28;20060;-89
2022/11/29 03:41:29;;;;;;;5.38;3.10;;;;;;;4.97;82.05;101185.84;4994019;28;20080;-86
2022/11/29 03:44:19;;;;;;;4.70;2.97;;;;;;;5.07;81.75;101202.84;5020824;28;20354;-85
2022/11/29 03:46:55;;;;;;;5.78;3.33;;;;;;;4.86;82.19;101175.97;5032083;28;20026;-86
2022/11/29 03:49:42;;;;;;;4.82;3.20;;;;;;;5.01;81.54;101203.28;5010604;28;20048;-85
2022/11/29 03:52:30;;;;;;;9.82;4.43;;;;;;;5.04;81.48;101205.75;5008820;28;20033;-88
2022/11/29 03:55:10;;;;;;;11.75;5.22;;;;;;;5.07;81.81;101217.03;4999782;28;20359;-88
2022/11/29 03:57:55;;;;;;;8.07;4.07;;;;;;;5.08;81.25;101209.91;4998789;28;20033;-87
2022/11/29 04:07:30;;;;;;;6.90;4.13;;;;;;;4.96;81.38;101226.75;5031493;28;20128;-88
2022/11/29 04:10:08;;;;;;;6.15;3.30;;;;;;;4.96;81.38;101211.63;4997215;28;20472;-88
2022/11/29 04:16:30;;;;;;;6.53;3.60;;;;;;;4.98;81.41;101227.50;5034234;28;20413;-87
2022/11/29 04:19:23;;;;;;;7.47;3.85;;;;;;;4.96;81.41;101242.75;5015799;28;20478;-87
2022/11/29 04:21:55;;;;;;;6.85;4.10;;;;;;;4.95;81.99;101233.91;5002269;28;20129;-86
2022/11/29 04:24:46;;;;;;;6.70;4.05;;;;;;;4.97;81.80;101228.50;5013155;28;20034;-86
2022/11/29 04:27:30;;;;;;;6.18;3.80;;;;;;;5.00;81.79;101229.09;4995707;28;20029;-87
2022/11/29 04:29:58;;;;;;;6.22;3.55;;;;;;;5.04;81.60;101213.75;5018115;28;20038;-87
2022/11/29 04:33:07;;;;;;;6.15;3.67;;;;;;;5.04;81.90;101227.94;5018495;28;20054;-86
2022/11/29 04:35:44;;;;;;;7.15;3.80;;;;;;;5.10;81.26;101226.63;5014983;28;20029;-86
2022/11/29 04:38:47;;;;;;;7.47;4.10;;;;;;;5.04;81.94;101229.75;5030792;28;20025;-88
2022/11/29 04:41:40;;;;;;;6.95;3.90;;;;;;;5.11;81.78;101244.31;5016272;28;20050;-88
2022/11/29 04:44:39;;;;;;;8.38;3.92;;;;;;;5.23;81.48;101239.91;4998784;28;20089;-88
2022/11/29 04:47:16;;;;;;;8.13;3.88;;;;;;;5.25;81.40;101235.31;5010515;28;20105;-86
2022/11/29 04:50:25;;;;;;;6.32;3.88;;;;;;;5.29;81.10;101235.00;5012698;28;20033;-86
2022/11/29 04:53:16;;;;;;;7.50;4.20;;;;;;;5.33;80.95;101229.41;5010280;28;20095;-89
2022/11/29 04:55:57;;;;;;;6.18;3.83;;;;;;;5.28;81.08;101241.28;5032909;28;20049;-86
2022/11/29 04:58:29;;;;;;;7.25;3.75;;;;;;;5.33;81.10;101224.94;5003055;28;20034;-88
2022/11/29 05:04:51;;;;;;;6.82;4.05;;;;;;;5.28;80.84;101233.28;4998789;28;20100;-87
2022/11/29 05:11:05;;;;;;;5.43;3.35;;;;;;;5.27;81.13;101233.41;5018087;28;20079;-87
2022/11/29 05:13:39;;;;;;;6.68;3.90;;;;;;;5.16;81.17;101207.53;5012578;28;20026;-86
2022/11/29 05:16:44;;;;;;;8.85;4.40;;;;;;;5.28;81.58;101246.59;4983499;28;20122;-88
2022/11/29 05:19:19;;;;;;;7.78;4.32;;;;;;;5.24;81.61;101237.16;5008466;28;20037;-87
2022/11/29 05:22:04;;;;;;;7.80;4.65;;;;;;;5.20;81.47;101229.50;5016545;28;20030;-87
2022/11/29 05:28:00;;;;;;;6.40;3.90;;;;;;;5.23;81.16;101240.75;5015616;28;20331;-88
2022/11/29 05:30:54;;;;;;;8.60;4.80;;;;;;;5.11;81.58;101220.34;5002006;28;20466;-88
2022/11/29 05:33:31;;;;;;;7.35;4.35;;;;;;;5.19;81.53;101233.94;5006924;28;20235;-92
2022/11/29 05:36:26;;;;;;;10.57;4.47;;;;;;;5.32;81.30;101257.06;4997197;28;20029;-91
2022/11/29 05:39:02;;;;;;;9.13;4.77;;;;;;;5.34;81.23;101255.09;4995250;28;20030;-91
2022/11/29 05:41:47;;;;;;;7.90;4.40;;;;;;;5.36;82.25;101250.50;5004086;28;20300;-91
2022/11/29 05:44:57;;;;;;;8.20;4.97;;;;;;;5.48;81.31;101260.31;4991318;28;20124;-92
2022/11/29 05:50:48;;;;;;;9.90;4.50;;;;;;;5.46;81.23;101257.75;5016267;28;20108;-90
2022/11/29 05:53:38;;;;;;;8.18;4.22;;;;;;;5.48;82.29;101249.63;5012433;28;20982;-92
2022/11/29 05:56:34;;;;;;;17.70;4.88;;;;;;;5.63;80.66;101261.81;4987704;28;20038;-90
2022/11/29 05:59:13;;;;;;;8.70;4.90;;;;;;;5.52;80.39;101235.09;5027510;28;20038;-92
2022/11/29 06:02:19;;;;;;;7.30;4.68;;;;;;;5.68;80.33;101246.31;5009724;28;20075;-94
2022/11/29 06:05:28;;;;;;;7.18;4.15;;;;;;;5.69;80.43;101274.72;5032632;28;20049;-93
2022/11/29 06:08:36;;;;;;;7.53;4.38;;;;;;;5.65;80.58;101275.06;5030647;28;20046;-95
2022/11/29 06:11:45;;;;;;;9.18;4.20;;;;;;;5.68;80.35;101277.47;5011438;28;20029;-92
2022/11/29 06:14:48;;;;;;;9.10;4.65;;;;;;;5.66;80.78;101274.91;5024779;28;20447;-96
2022/11/29 06:17:39;;;;;;;6.85;4.00;;;;;;;5.61;80.67;101284.25;5011413;28;20514;-93
2022/11/29 06:20:33;;;;;;;8.15;4.40;;;;;;;5.36;80.64;101242.53;5011357;28;20421;-93
2022/11/29 06:23:27;;;;;;;7.28;4.40;;;;;;;5.63;81.14;101291.16;5015101;28;20148;-91
2022/11/29 06:26:25;;;;;;;7.60;4.45;;;;;;;5.63;81.36;101285.81;5020468;28;20174;-91
2022/11/29 06:29:16;;;;;;;7.07;4.22;;;;;;;5.61;81.32;101292.25;5005254;28;20037;-94
2022/11/29 06:32:35;;;;;;;7.45;4.80;;;;;;;5.56;81.71;101268.56;5002273;28;20021;-94
2022/11/29 06:35:44;;;;;;;7.78;4.60;;;;;;;5.49;81.53;101252.16;4949943;29;20047;-92
2022/11/29 06:38:31;;;;;;;;;;;;;;;5.67;81.54;101276.63;4946271;29;20090;-93
2022/11/29 06:41:01;;;;;;;6.53;3.90;;;;;;;5.55;81.20;101266.00;4953091;29;19958;-91
2022/11/29 06:43:28;;;;;;;6.78;3.97;;;;;;;5.76;81.25;101279.56;4941951;28;20174;-94
2022/11/29 06:46:26;;;;;;;9.18;4.28;;;;;;;5.57;81.48;101248.97;5002154;28;20085;-94
2022/11/29 06:49:08;;;;;;;6.47;3.72;;;;;;;5.80;81.40;101291.72;4976278;28;20037;-93
2022/11/29 06:51:43;;;;;;;6.78;3.75;;;;;;;5.81;80.96;101288.09;5008862;28;20520;-91
2022/11/29 06:54:49;;;;;;;8.20;4.13;;;;;;;5.82;81.08;101276.44;5020020;28;20566;-89
2022/11/29 06:57:46;;;;;;;6.45;3.63;;;;;;;5.90;81.20;101292.75;5001507;28;20080;-91
2022/11/29 07:00:24;;;;;;;4.60;2.97;;;;;;;5.68;80.86;101254.31;5014378;28;20030;-90
2022/11/29 07:03:11;;;;;;;5.97;3.65;;;;;;;5.95;80.57;101303.97;5014988;28;20025;-92
2022/11/29 07:05:39;;;;;;;7.07;3.92;;;;;;;5.78;80.73;101273.16;5046640;28;20030;-91
2022/11/29 07:08:10;;;;;;;6.63;3.90;;;;;;;5.84;81.02;101293.22;5011862;28;20042;-89
2022/11/29 07:10:41;;;;;;;5.70;3.20;;;;;;;5.80;80.66;101260.53;5029263;28;20102;-95
2022/11/29 07:13:12;;;;;;;6.38;3.60;;;;;;;5.76;80.81;101268.91;5002995;28;20489;-91
2022/11/29 07:15:42;;;;;;;6.50;4.10;;;;;;;5.81;81.20;101296.13;4984173;28;20053;-90
2022/11/29 07:18:21;;;;;;;6.30;3.55;;;;;;;5.89;81.00;101275.88;4978139;28;20034;-90
2022/11/29 07:21:08;;;;;;;6.05;3.53;;;;;;;6.08;80.98;101302.06;4999136;28;20037;-89
2022/11/29 07:23:37;;;;;;;6.68;3.47;;;;;;;6.12;80.56;101308.03;5044763;28;20033;-86
2022/11/29 07:26:26;;;;;;;5.80;3.45;;;;;;;6.16;80.93;101303.28;5020155;28;20018;-87
2022/11/29 07:28:59;;;;;;;5.70;3.25;;;;;;;6.23;80.22;101305.41;4980486;28;20030;-88
2022/11/29 07:31:34;;;;;;;6.35;3.50;;;;;;;6.19;80.19;101292.41;5017885;28;20033;-89
2022/11/29 07:34:22;;;;;;;6.63;3.70;;;;;;;6.34;80.33;101312.56;4999529;28;20042;-90
2022/11/29 07:37:03;;;;;;;6.22;3.58;;;;;;;6.20;80.83;101270.06;5021672;28;20029;-90
2022/11/29 07:39:41;;;;;;;6.63;3.10;;;;;;;6.37;80.55;101306.13;5012465;28;20181;-91
2022/11/29 07:42:28;;;;;;;8.27;3.78;;;;;;;6.36;80.60;101309.78;5016374;28;20052;-90
2022/11/29 07:45:06;;;;;;;5.75;3.25;;;;;;;6.35;80.76;101287.56;4995303;28;20133;-89
2022/11/29 07:47:32;;;;;;;6.15;3.35;;;;;;;6.32;80.25;101282.44;4994438;28;20152;-91
2022/11/29 07:49:58;;;;;;;5.47;3.58;;;;;;;6.14;80.66;101236.69;5001470;28;20058;-90
2022/11/29 07:52:25;;;;;;;7.55;3.85;;;;;;;6.39;80.45;101274.81;5001058;28;20034;-89
2022/11/29 07:54:50;;;;;;;4.70;2.97;;;;;;;6.48;80.16;101288.31;5021504;28;20214;-92
2022/11/29 07:57:19;;;;;;;6.65;3.47;;;;;;;6.44;79.92;101276.19;5004686;28;20026;-88
2022/11/29 07:59:48;;;;;;;8.85;4.53;;;;;;;6.49;79.97;101292.69;4995244;28;20426;-88
2022/11/29 08:02:13;;;;;;;6.38;3.72;;;;;;;6.50;80.41;101302.41;4993785;28;20483;-91
2022/11/29 08:04:45;;;;;;;7.53;4.85;;;;;;;6.55;80.03;101305.59;5003071;28;20040;-91
2022/11/29 08:07:10;;;;;;;6.47;3.70;;;;;;;6.59;79.37;101318.72;4997200;28;20041;-90
2022/11/29 08:09:38;;;;;;;5.53;3.30;;;;;;;6.42;79.40;101288.81;4997823;28;20103;-89
2022/11/29 08:12:05;;;;;;;6.97;3.55;;;;;;;6.40;79.27;101279.22;5008918;28;20279;-91
2022/11/29 08:14:32;;;;;;;8.02;4.05;;;;;;;6.43;79.46;101285.16;5020765;28;20041;-90
2022/11/29 08:16:58;;;;;;;6.60;3.50;;;;;;;6.56;79.79;101295.75;5001998;28;20050;-90
2022/11/29 08:19:24;;;;;;;8.00;3.63;;;;;;;6.47;79.31;101277.75;5006575;28;20120;-91
2022/11/29 08:21:51;;;;;;;;;;;;;;;6.81;78.89;101308.03;4996838;28;20072;-87
2022/11/29 08:24:17;;;;;;;5.65;2.83;;;;;;;6.72;79.43;101316.78;4996920;28;20333;-88
2022/11/29 08:26:44;;;;;;;6.07;3.28;;;;;;;6.68;79.40;101309.97;4998303;28;20034;-89
2022/11/29 08:29:10;;;;;;;6.13;3.20;;;;;;;6.87;78.92;101320.91;5025481;28;20035;-88
2022/11/29 08:31:36;;;;;;;8.98;3.70;;;;;;;6.87;79.11;101320.91;5001940;28;20116;-89
2022/11/29 08:34:05;;;;;;;4.43;2.97;;;;;;;6.88;79.04;101319.97;4994969;28;20038;-89
2022/11/29 08:36:31;;;;;;;5.25;3.05;;;;;;;6.49;79.16;101265.16;4981372;28;20044;-88
2022/11/29 08:38:57;;;;;;;6.18;3.63;;;;;;;6.62;79.55;101295.25;5009970;28;20046;-88
2022/11/29 08:41:24;;;;;;;4.60;2.80;;;;;;;6.65;78.98;101295.03;4995971;28;20120;-90
2022/11/29 08:43:50;;;;;;;7.57;3.00;;;;;;;6.81;79.12;101310.69;4982522;28;20077;-89
2022/11/29 08:46:16;;;;;;;5.47;3.28;;;;;;;6.70;79.39;101292.00;5005750;28;20120;-89
2022/11/29 08:48:41;;;;;;;5.22;2.90;;;;;;;6.87;79.25;101315.56;5014827;28;20116;-89
2022/11/29 08:51:09;;;;;;;5.43;3.13;;;;;;;6.66;78.78;101267.31;5017849;28;20026;-89
2022/11/29 08:53:41;;;;;;;5.63;3.33;;;;;;;6.84;79.05;101283.75;5021879;28;20129;-90
2022/11/29 08:56:15;;;;;;;6.60;3.72;;;;;;;6.88;78.36;101298.56;4996961;28;20443;-87
2022/11/29 08:58:41;;;;;;;6.68;4.00;;;;;;;6.65;78.29;101254.97;4996049;28;20062;-87
2022/11/29 09:01:16;;;;;;;5.28;3.13;;;;;;;6.90;78.09;101272.53;5002720;28;20083;-88
2022/11/29 09:03:59;;;;;;;5.63;3.53;;;;;;;6.97;78.38;101280.94;5010425;28;20037;-87
2022/11/29 09:06:39;;;;;;;7.55;4.32;;;;;;;7.07;78.51;101291.72;4998939;28;20045;-89
2022/11/29 09:09:06;;;;;;;5.88;3.78;;;;;;;6.97;78.47;101276.44;5002065;28;20045;-89
2022/11/29 09:11:33;;;;;;;5.97;3.70;;;;;;;6.82;78.49;101252.78;5022448;28;20034;-88
2022/11/29 09:14:01;;;;;;;7.40;4.32;;;;;;;6.94;77.98;101244.59;5017675;28;20033;-90
2022/11/29 09:16:31;;;;;;;5.90;3.67;;;;;;;7.21;78.02;101291.50;5014817;28;20120;-88
2022/11/29 09:19:03;;;;;;;5.82;3.60;;;;;;;7.23;78.33;101281.50;5002135;28;20050;-90
2022/11/29 09:21:30;;;;;;;6.40;3.75;;;;;;;7.10;78.52;101244.22;5027189;28;20112;-89
2022/11/29 09:23:58;;;;;;;5.78;3.45;;;;;;;7.19;78.50;101269.38;4998042;28;20049;-90
2022/11/29 09:26:26;;;;;;;7.65;3.67;;;;;;;6.93;79.08;101224.22;4998927;28;20053;-90
2022/11/29 09:28:52;;;;;;;8.82;4.28;;;;;;;7.06;79.63;101253.47;4986272;28;20418;-88
2022/11/29 09:31:20;;;;;;;5.88;3.55;;;;;;;7.20;78.88;101257.69;5007211;28;20073;-87
2022/11/29 09:33:47;;;;;;;6.93;2.95;;;;;;;7.09;78.94;101231.81;5003192;28;20038;-88
2022/11/29 09:36:15;;;;;;;4.95;3.35;;;;;;;7.02;79.11;101219.91;5024175;28;20089;-90
2022/11/29 09:38:41;;;;;;;5.88;3.40;;;;;;;7.23;79.05;101245.91;5008859;28;20120;-89
2022/11/29 09:41:43;;;;;;;6.95;3.65;;;;;;;7.44;78.41;101245.97;5024348;28;20471;-88
2022/11/29 09:44:11;;;;;;;8.40;2.78;;;;;;;7.62;77.94;101249.81;4987245;28;20100;-89
2022/11/29 09:47:14;;;;;;;6.65;4.07;;;;;;;7.57;78.16;101230.59;5000345;28;20402;-90
2022/11/29 09:49:58;;;;;;;5.53;3.20;;;;;;;7.63;78.51;101246.13;5018099;28;20490;-87
2022/11/29 09:52:30;;;;;;;5.25;3.03;;;;;;;7.53;79.38;101242.53;5019663;28;20565;-88
2022/11/29 09:55:10;;;;;;;4.93;2.80;;;;;;;7.42;79.93;101239.88;5017021;28;20038;-90
2022/11/29 09:57:39;;;;;;;5.32;2.80;;;;;;;7.51;78.88;101228.44;5024575;28;20498;-89
2022/11/29 10:00:14;;;;;;;4.97;3.03;;;;;;;7.49;79.17;101225.03;4993562;28;20104;-92
2022/11/29 10:02:46;;;;;;;4.82;2.70;;;;;;;7.53;79.30;101226.47;4994946;28;20537;-89
2022/11/29 10:05:23;;;;;;;4.25;2.70;;;;;;;7.58;79.17;101237.63;4989202;28;20049;-94
2022/11/29 10:08:20;;;;;;;4.57;3.00;;;;;;;7.65;79.20;101233.47;5023770;28;20018;-90
2022/11/29 10:10:50;;;;;;;5.15;2.70;;;;;;;7.42;80.12;101239.88;5017404;28;20095;-91
2022/11/29 10:13:34;;;;;;;5.30;3.05;;;;;;;7.48;79.54;101218.00;5032127;28;20021;-91
2022/11/29 10:16:18;;;;;;;4.35;2.90;;;;;;;7.44;79.80;101224.56;4997032;28;20046;-92
2022/11/29 10:19:03;;;;;;;5.65;2.63;;;;;;;7.35;79.50;101194.94;4973123;28;20049;-91
2022/11/29 10:21:36;;;;;;;4.05;2.53;;;;;;;7.78;78.79;101230.63;5012119;28;20433;-88
2022/11/29 10:24:04;;;;;;;8.45;5.55;;;;;;;7.80;78.44;101218.81;5016533;28;20095;-89
2022/11/29 10:26:29;;;;;;;4.35;2.88;;;;;;;7.65;78.19;101187.97;4985333;28;20129;-88
2022/11/29 10:28:57;;;;;;;7.60;3.65;;;;;;;7.87;77.97;101215.63;5017049;28;20108;-89
2022/11/29 10:31:35;;;;;;;10.52;5.38;;;;;;;7.81;77.51;101199.09;4995265;28;20046;-89
2022/11/29 10:34:05;;;;;;;5.47;3.13;;;;;;;7.91;77.63;101219.72;4999686;28;20034;-89
2022/11/29 10:36:50;;;;;;;11.13;5.88;;;;;;;7.94;77.67;101238.22;4979849;28;20033;-87
2022/11/29 10:39:27;;;;;;;6.00;3.03;;;;;;;7.98;77.96;101242.31;5001755;28;20042;-89
2022/11/29 10:41:59;;;;;;;7.38;4.10;;;;;;;7.98;77.44;101231.63;5017679;28;20041;-93
2022/11/29 10:44:25;;;;;;;6.13;3.20;;;;;;;7.87;77.33;101223.66;4974865;28;20034;-90
2022/11/29 10:46:52;;;;;;;;;;;;;;;7.99;77.42;101247.56;5016009;28;20144;-91
2022/11/29 10:49:19;;;;;;;5.70;2.83;;;;;;;7.87;77.42;101232.53;5013374;28;19917;-89
2022/11/29 10:51:44;;;;;;;;;;;;;;;7.90;77.67;101239.47;5003974;28;20077;-89
2022/11/29 10:54:42;;;;;;;6.50;2.50;;;;;;;7.63;78.06;101211.34;4998515;28;19931;-90
2022/11/29 10:57:18;;;;;;;3.10;2.10;;;;;;;7.83;77.80;101231.09;5004243;28;20044;-94
2022/11/29 11:00:05;;;;;;;5.47;3.10;;;;;;;7.95;78.40;101250.63;5028630;28;20094;-92
2022/11/29 11:02:54;;;;;;;5.03;2.97;;;;;;;7.85;78.58;101231.81;4997591;28;20044;-93
2022/11/29 11:05:25;;;;;;;5.22;3.30;;;;;;;8.06;78.52;101223.78;5020546;28;20069;-90
2022/11/29 11:08:04;;;;;;;6.20;3.65;;;;;;;8.16;78.73;101243.44;4981731;28;20861;-92
2022/11/29 11:10:30;;;;;;;6.30;3.80;;;;;;;8.21;78.57;101235.00;5025687;28;20068;-93
2022/11/29 11:13:19;;;;;;;5.60;3.33;;;;;;;8.18;78.09;101214.69;5005111;28;20093;-90
2022/11/29 11:16:08;;;;;;;6.55;3.50;;;;;;;8.29;78.39;101237.91;5023978;28;20036;-92
2022/11/29 11:18:38;;;;;;;7.05;3.53;;;;;;;8.35;77.96;101220.44;5026394;28;20121;-92
2022/11/29 11:21:11;;;;;;;5.28;3.13;;;;;;;8.45;77.31;101229.41;5002470;28;20466;-93
2022/11/29 11:23:58;;;;;;;9.40;3.38;;;;;;;8.68;76.55;101223.88;5005781;28;20038;-94
2022/11/29 11:26:26;;;;;;;5.40;3.20;;;;;;;8.80;76.52;101231.69;5008835;28;20038;-92
2022/11/29 11:29:01;;;;;;;6.00;3.65;;;;;;;8.68;76.34;101205.09;4981430;28;20129;-91
2022/11/29 11:31:33;;;;;;;6.50;3.72;;;;;;;8.90;76.48;101221.00;5001311;28;20115;-93
2022/11/29 11:34:26;;;;;;;6.32;3.53;;;;;;;8.92;76.35;101216.34;5002075;28;20034;-91
2022/11/29 11:36:55;;;;;;;7.43;4.10;;;;;;;8.99;76.92;101222.84;5005110;28;20557;-89
2022/11/29 11:39:29;;;;;;;5.13;3.15;;;;;;;8.96;76.51;101217.75;4989071;28;20154;-91
2022/11/29 11:44:51;;;;;;;7.30;3.40;;;;;;;8.81;76.12;101182.44;4987755;28;20526;-91
2022/11/29 11:47:29;;;;;;;4.68;3.30;;;;;;;9.03;75.68;101218.91;5025194;28;20060;-92
2022/11/29 11:50:12;;;;;;;6.85;3.75;;;;;;;8.89;76.78;101219.28;4999374;28;20028;-92
2022/11/29 11:52:41;;;;;;;7.28;3.42;;;;;;;8.95;76.56;101216.06;4997606;28;20046;-90
2022/11/29 11:56:00;;;;;;;7.28;4.10;;;;;;;8.54;77.17;101182.19;5005932;28;20026;-93
2022/11/29 11:59:02;;;;;;;7.35;3.65;;;;;;;8.72;77.65;101236.03;4994289;23;20114;-93
2022/11/29 12:01:53;;;;;;;7.45;3.30;;;;;;;8.51;77.78;101202.06;4890982;29;20084;-92
2022/11/29 12:04:35;;;;;;;8.10;3.47;;;;;;;8.71;77.04;101210.19;4890739;29;20053;-93
2022/11/29 12:07:10;;;;;;;9.07;3.25;;;;;;;8.38;77.78;101190.69;4859099;29;20049;-92
2022/11/29 12:12:51;;;;;;;10.05;4.38;;;;;;;8.74;79.98;101256.34;4984208;28;20117;-91
2022/11/29 12:15:28;;;;;;;9.77;3.92;;;;;;;8.82;79.70;101253.00;4976613;28;20031;-92
2022/11/29 12:18:11;;;;;;;5.63;3.55;;;;;;;8.56;80.17;101237.34;4968681;28;20042;-94
2022/11/29 12:21:23;;;;;;;7.85;4.55;;;;;;;8.83;80.66;101260.91;4988622;28;20031;-92
2022/11/29 12:24:15;;;;;;;7.22;4.18;;;;;;;8.79;81.09;101237.19;4984935;28;20054;-92
2022/11/29 12:27:02;;;;;;;4.38;2.53;;;;;;;8.99;80.58;101233.59;4986820;28;20030;-91
2022/11/29 12:29:31;;;;;;;6.90;2.72;;;;;;;9.01;80.61;101236.13;4979209;28;20071;-91
2022/11/29 12:32:13;;;;;;;6.30;3.38;;;;;;;9.17;80.94;101232.91;4966406;28;20050;-95
2022/11/29 12:35:17;;;;;;;4.20;2.35;;;;;;;9.13;80.03;101236.84;4981426;28;20035;-91
2022/11/29 12:38:06;;;;;;;5.38;2.63;;;;;;;9.15;80.85;101241.09;4978570;28;20097;-87
2022/11/29 12:40:56;;;;;;;4.55;2.70;;;;;;;9.18;80.16;101235.47;4976177;28;20487;-87
2022/11/29 12:43:46;;;;;;;5.68;2.80;;;;;;;9.07;80.45;101220.31;4975073;28;20039;-87
2022/11/29 12:46:45;;;;;;;6.50;2.65;;;;;;;8.90;80.81;101221.00;4994456;28;20107;-90
2022/11/29 12:49:24;;;;;;;6.13;2.97;;;;;;;9.13;80.95;101242.22;4972281;28;20061;-87
2022/11/29 12:52:12;;;;;;;7.45;2.60;;;;;;;9.07;81.56;101257.88;4969683;28;20063;-86
2022/11/29 12:54:40;;;;;;;7.82;3.00;;;;;;;9.04;81.82;101260.00;4975639;28;20035;-88
2022/11/29 12:57:43;;;;;;;5.97;3.00;;;;;;;8.94;81.71;101245.69;4977427;28;20118;-90
2022/11/29 13:00:20;;;;;;;4.63;2.60;;;;;;;9.12;81.08;101238.69;4978327;28;20496;-87
2022/11/29 13:03:03;;;;;;;5.28;2.95;;;;;;;9.15;81.23;101265.22;4974518;28;20030;-89
2022/11/29 13:05:56;;;;;;;6.38;3.53;;;;;;;9.20;81.67;101264.81;4968130;28;20053;-87
2022/11/29 13:08:48;;;;;;;6.05;3.15;;;;;;;9.02;81.45;101249.41;4976899;28;20038;-88